createdAt,value
2022-11-01T00:00:55.823Z,13.09
2022-11-01T00:03:28.733Z,13.11
2022-11-01T00:06:03.083Z,13.13
2022-11-01T00:08:36.059Z,13.16
2022-11-01T00:11:13.161Z,13.19
2022-11-01T00:13:47.806Z,13.23
2022-11-01T00:16:21.950Z,13.29
2022-11-01T00:18:55.254Z,13.31
2022-11-01T00:21:29.521Z,13.35
2022-11-01T00:24:05.755Z,13.40
2022-11-01T00:26:38.834Z,13.42
2022-11-01T00:29:12.812Z,13.46
2022-11-01T00:31:45.823Z,13.48
2022-11-01T00:34:19.226Z,13.51
2022-11-01T00:36:57.699Z,13.54
2022-11-01T00:39:45.096Z,13.58
2022-11-01T00:42:19.922Z,13.57
2022-11-01T00:44:52.880Z,13.62
2022-11-01T00:47:25.995Z,13.66
2022-11-01T00:49:59.535Z,13.71
2022-11-01T00:52:33.809Z,13.79
2022-11-01T00:55:07.627Z,13.83
2022-11-01T00:57:40.474Z,13.91
2022-11-01T01:00:15.518Z,13.98
2022-11-01T01:02:48.353Z,14.03
2022-11-01T01:05:21.691Z,14.09
2022-11-01T01:07:56.136Z,14.15
2022-11-01T01:10:29.181Z,14.21
2022-11-01T01:13:02.585Z,14.25
2022-11-01T01:15:35.803Z,14.26
2022-11-01T01:18:10.772Z,14.27
2022-11-01T01:20:44.069Z,14.28
2022-11-01T01:23:18.432Z,14.27
2022-11-01T01:25:51.273Z,14.25
2022-11-01T01:28:24.433Z,14.23
2022-11-01T01:31:01.782Z,14.20
2022-11-01T01:33:39.563Z,14.16
2022-11-01T01:36:20.498Z,14.13
2022-11-01T01:38:56.105Z,14.10
2022-11-01T01:41:48.401Z,14.07
2022-11-01T01:44:39.710Z,14.04
2022-11-01T01:47:21.061Z,14.01
2022-11-01T01:50:04.206Z,13.99
2022-11-01T01:52:44.136Z,13.94
2022-11-01T01:55:25.458Z,13.91
2022-11-01T01:58:00.184Z,13.86
2022-11-01T02:00:33.006Z,13.84
2022-11-01T02:03:07.877Z,13.80
2022-11-01T02:05:46.371Z,13.80
2022-11-01T02:08:27.771Z,13.76
2022-11-01T02:11:06.161Z,13.75
2022-11-01T02:13:39.610Z,13.73
2022-11-01T02:16:32.679Z,13.75
2022-11-01T02:19:25.536Z,13.74
2022-11-01T02:22:05.947Z,13.74
2022-11-01T02:25:21.599Z,13.73
2022-11-01T02:28:17.044Z,13.72
2022-11-01T02:31:04.439Z,13.72
2022-11-01T02:33:44.874Z,13.69
2022-11-01T02:36:23.802Z,13.67
2022-11-01T02:39:01.402Z,13.67
2022-11-01T02:41:38.926Z,13.66
2022-11-01T02:44:18.226Z,13.67
2022-11-01T02:47:01.656Z,13.67
2022-11-01T02:49:40.084Z,13.70
2022-11-01T02:55:29.901Z,13.74
2022-11-01T02:58:06.510Z,13.76
2022-11-01T03:00:39.487Z,13.78
2022-11-01T03:03:17.854Z,13.82
2022-11-01T03:06:03.945Z,13.87
2022-11-01T03:08:41.354Z,13.90
2022-11-01T03:14:00.707Z,14.02
2022-11-01T03:16:37.055Z,14.08
2022-11-01T03:19:23.867Z,14.16
2022-11-01T03:22:01.833Z,14.24
2022-11-01T03:24:39.336Z,14.32
2022-11-01T03:27:18.575Z,14.36
2022-11-01T03:29:57.190Z,14.43
2022-11-01T03:32:35.842Z,14.47
2022-11-01T03:35:11.615Z,14.48
2022-11-01T03:37:47.929Z,14.50
2022-11-01T03:40:22.405Z,14.49
2022-11-01T03:42:59.091Z,14.50
2022-11-01T03:45:36.244Z,14.50
2022-11-01T03:48:09.548Z,14.48
2022-11-01T03:50:48.783Z,14.48
2022-11-01T03:53:24.076Z,14.48
2022-11-01T03:55:57.516Z,14.46
2022-11-01T03:58:41.859Z,14.46
2022-11-01T04:01:17.459Z,14.47
2022-11-01T04:03:50.320Z,14.47
2022-11-01T04:06:23.177Z,14.48
2022-11-01T04:08:57.462Z,14.49
2022-11-01T04:11:30.432Z,14.48
2022-11-01T04:14:20.938Z,14.49
2022-11-01T04:17:11.209Z,14.51
2022-11-01T04:20:12.851Z,14.52
2022-11-01T04:22:45.724Z,14.54
2022-11-01T04:25:20.042Z,14.58
2022-11-01T04:27:52.987Z,14.58
2022-11-01T04:30:26.231Z,14.62
2022-11-01T04:32:59.828Z,14.64
2022-11-01T04:35:33.178Z,14.67
2022-11-01T04:38:06.727Z,14.71
2022-11-01T04:40:41.610Z,14.79
2022-11-01T04:43:14.689Z,14.82
2022-11-01T04:45:55.237Z,14.91
2022-11-01T04:48:28.345Z,14.93
2022-11-01T04:51:03.068Z,14.97
2022-11-01T04:53:36.342Z,15.02
2022-11-01T04:56:13.486Z,15.11
2022-11-01T04:58:46.908Z,15.15
2022-11-01T05:01:22.881Z,15.23
2022-11-01T05:03:56.400Z,15.28
2022-11-01T05:06:29.534Z,15.37
2022-11-01T05:09:02.499Z,15.47
2022-11-01T05:11:36.876Z,15.59
2022-11-01T05:14:10.443Z,15.67
2022-11-01T05:16:43.454Z,15.79
2022-11-01T05:19:17.030Z,15.89
2022-11-01T05:21:49.835Z,15.99
2022-11-01T05:24:23.118Z,16.10
2022-11-01T05:26:57.540Z,16.18
2022-11-01T05:29:33.659Z,16.26
2022-11-01T05:32:06.551Z,16.34
2022-11-01T05:34:39.462Z,16.41
2022-11-01T05:37:12.414Z,16.47
2022-11-01T05:39:45.328Z,16.52
2022-11-01T05:42:19.488Z,16.57
2022-11-01T05:44:53.073Z,16.63
2022-11-01T05:47:25.838Z,16.67
2022-11-01T05:49:58.744Z,16.72
2022-11-01T05:52:31.512Z,16.76
2022-11-01T05:55:04.516Z,16.77
2022-11-01T05:57:39.361Z,16.80
2022-11-01T06:00:13.662Z,16.82
2022-11-01T06:02:46.593Z,16.83
2022-11-01T06:05:19.561Z,16.85
2022-11-01T06:07:52.631Z,16.87
2022-11-01T06:10:25.828Z,16.87
2022-11-01T06:13:00.747Z,16.89
2022-11-01T06:15:37.127Z,16.91
2022-11-01T06:18:12.986Z,16.91
2022-11-01T06:20:45.984Z,16.93
2022-11-01T06:23:19.798Z,16.94
2022-11-01T06:25:52.698Z,16.96
2022-11-01T06:28:27.043Z,17.00
2022-11-01T06:31:02.427Z,17.01
2022-11-01T06:33:35.464Z,17.02
2022-11-01T06:36:08.550Z,17.06
2022-11-01T06:38:41.314Z,17.07
2022-11-01T06:41:14.502Z,17.10
2022-11-01T06:43:50.680Z,17.11
2022-11-01T06:46:23.859Z,17.12
2022-11-01T06:48:56.632Z,17.14
2022-11-01T06:51:30.377Z,17.15
2022-11-01T06:54:03.235Z,17.17
2022-11-01T06:56:36.357Z,17.21
2022-11-01T06:59:10.735Z,17.23
2022-11-01T07:01:44.229Z,17.26
2022-11-01T07:04:17.312Z,17.29
2022-11-01T07:06:52.531Z,17.34
2022-11-01T07:09:26.548Z,17.39
2022-11-01T07:11:59.510Z,17.43
2022-11-01T07:14:34.144Z,17.48
2022-11-01T07:17:06.953Z,17.51
2022-11-01T07:19:39.731Z,17.55
2022-11-01T07:22:14.706Z,17.57
2022-11-01T07:24:47.490Z,17.61
2022-11-01T07:27:20.766Z,17.62
2022-11-01T07:29:56.221Z,17.65
2022-11-01T07:32:29.177Z,17.66
2022-11-01T07:35:02.030Z,17.70
2022-11-01T07:37:36.291Z,17.75
2022-11-01T07:40:09.896Z,17.79
2022-11-01T07:42:43.618Z,17.82
2022-11-01T07:45:18.100Z,17.86
2022-11-01T07:47:52.117Z,17.87
2022-11-01T07:50:24.969Z,17.93
2022-11-01T07:53:02.380Z,17.98
2022-11-01T07:55:35.698Z,18.01
2022-11-01T07:58:09.403Z,18.04
2022-11-01T08:00:45.282Z,18.08
2022-11-01T08:03:20.361Z,18.12
2022-11-01T08:05:53.168Z,18.16
2022-11-01T08:08:25.985Z,18.20
2022-11-01T08:11:01.437Z,18.24
2022-11-01T08:13:34.335Z,18.28
2022-11-01T08:16:09.592Z,18.34
2022-11-01T08:18:42.406Z,18.37
2022-11-01T08:21:18.802Z,18.41
2022-11-01T08:23:51.796Z,18.44
2022-11-01T08:26:24.594Z,18.49
2022-11-01T08:28:57.444Z,18.54
2022-11-01T08:31:31.868Z,18.58
2022-11-01T08:34:04.720Z,18.62
2022-11-01T08:36:37.545Z,18.68
2022-11-01T08:39:10.943Z,18.70
2022-11-01T08:41:43.831Z,18.77
2022-11-01T08:44:17.968Z,18.82
2022-11-01T08:46:55.696Z,18.89
2022-11-01T08:49:29.100Z,18.95
2022-11-01T08:52:01.957Z,19.00
2022-11-01T08:54:35.439Z,19.09
2022-11-01T08:57:08.588Z,19.15
2022-11-01T08:59:41.540Z,19.22
2022-11-01T09:02:16.472Z,19.31
2022-11-01T09:04:49.619Z,19.38
2022-11-01T09:07:22.688Z,19.46
2022-11-01T09:09:55.630Z,19.53
2022-11-01T09:12:28.895Z,19.59
2022-11-01T09:15:02.057Z,19.65
2022-11-01T09:17:42.817Z,19.72
2022-11-01T09:20:16.300Z,19.75
2022-11-01T09:22:52.487Z,19.80
2022-11-01T09:25:25.424Z,19.84
2022-11-01T09:27:58.805Z,19.90
2022-11-01T09:30:31.737Z,19.96
2022-11-01T09:33:07.502Z,20.03
2022-11-01T09:35:40.544Z,20.07
2022-11-01T09:38:13.565Z,20.12
2022-11-01T09:40:51.218Z,20.17
2022-11-01T09:43:26.769Z,20.22
2022-11-01T09:46:01.991Z,20.25
2022-11-01T09:48:37.886Z,20.32
2022-11-01T09:51:16.959Z,20.38
2022-11-01T09:53:51.108Z,20.41
2022-11-01T09:56:30.523Z,20.47
2022-11-01T09:59:15.567Z,20.52
2022-11-01T10:01:58.993Z,20.55
2022-11-01T10:05:10.299Z,20.62
2022-11-01T10:08:16.218Z,20.63
2022-11-01T10:11:00.653Z,20.72
2022-11-01T10:13:45.077Z,20.75
2022-11-01T10:16:27.240Z,20.76
2022-11-01T10:19:04.807Z,20.76
2022-11-01T10:21:44.114Z,20.75
2022-11-01T10:24:23.705Z,20.76
2022-11-01T10:27:05.587Z,20.76
2022-11-01T10:29:46.072Z,20.77
2022-11-01T10:32:30.997Z,20.77
2022-11-01T10:35:07.825Z,20.77
2022-11-01T10:37:57.348Z,20.80
2022-11-01T10:40:44.637Z,20.81
2022-11-01T10:43:24.365Z,20.83
2022-11-01T10:46:00.461Z,20.85
2022-11-01T10:48:38.187Z,20.88
2022-11-01T10:51:13.802Z,20.92
2022-11-01T10:53:50.044Z,20.96
2022-11-01T10:56:28.382Z,21.05
2022-11-01T10:59:05.595Z,21.12
2022-11-01T11:01:42.755Z,21.19
2022-11-01T11:04:18.439Z,21.28
2022-11-01T11:06:52.525Z,21.37
2022-11-01T11:09:30.288Z,21.46
2022-11-01T11:12:08.193Z,21.55
2022-11-01T11:14:45.313Z,21.65
2022-11-01T11:17:25.213Z,21.72
2022-11-01T11:20:04.560Z,21.79
2022-11-01T11:22:40.184Z,21.82
2022-11-01T11:25:17.532Z,21.88
2022-11-01T11:27:53.082Z,21.90
2022-11-01T11:30:32.685Z,21.95
2022-11-01T11:33:05.771Z,21.94
2022-11-01T11:35:40.540Z,21.96
2022-11-01T11:38:15.625Z,22.00
2022-11-01T11:40:50.020Z,22.00
2022-11-01T11:43:25.712Z,22.02
2022-11-01T11:46:07.956Z,22.05
2022-11-01T11:48:48.570Z,22.06
2022-11-01T11:51:22.624Z,22.05
2022-11-01T11:54:16.517Z,22.08
2022-11-01T11:56:52.859Z,22.08
2022-11-01T11:59:29.565Z,22.08
2022-11-01T12:02:09.698Z,22.10
2022-11-01T12:04:53.119Z,22.10
2022-11-01T12:07:29.458Z,22.11
2022-11-01T12:10:03.759Z,22.11
2022-11-01T12:12:40.717Z,22.13
2022-11-01T12:15:28.771Z,22.15
2022-11-01T12:18:15.871Z,22.15
2022-11-01T12:20:52.255Z,22.14
2022-11-01T12:23:32.970Z,22.14
2022-11-01T12:26:12.548Z,22.12
2022-11-01T12:28:55.141Z,22.11
2022-11-01T12:31:31.755Z,22.11
2022-11-01T12:34:12.719Z,22.11
2022-11-01T12:36:50.021Z,22.10
2022-11-01T12:39:37.838Z,22.11
2022-11-01T12:42:19.205Z,22.10
2022-11-01T12:44:57.217Z,22.09
2022-11-01T12:47:37.174Z,22.08
2022-11-01T12:50:20.179Z,22.08
2022-11-01T12:52:58.604Z,22.05
2022-11-01T12:55:35.204Z,22.04
2022-11-01T12:58:13.253Z,22.03
2022-11-01T13:01:07.762Z,22.00
2022-11-01T13:03:49.460Z,21.96
2022-11-01T13:06:34.758Z,21.89
2022-11-01T13:09:16.844Z,21.86
2022-11-01T13:11:55.449Z,21.80
2022-11-01T13:14:40.229Z,21.75
2022-11-01T13:17:22.574Z,21.71
2022-11-01T13:20:05.533Z,21.69
2022-11-01T13:22:47.440Z,21.66
2022-11-01T13:25:25.604Z,21.63
2022-11-01T13:28:05.154Z,21.62
2022-11-01T13:30:40.746Z,21.58
2022-11-01T13:33:22.662Z,21.56
2022-11-01T13:36:02.172Z,21.50
2022-11-01T13:38:45.256Z,21.45
2022-11-01T13:41:25.839Z,21.41
2022-11-01T13:44:05.544Z,21.35
2022-11-01T13:47:00.209Z,21.30
2022-11-01T13:50:14.597Z,21.24
2022-11-01T13:52:52.224Z,21.17
2022-11-01T13:55:34.840Z,21.09
2022-11-01T13:58:08.308Z,21.00
2022-11-01T14:00:44.625Z,20.94
2022-11-01T14:03:20.420Z,20.85
2022-11-01T14:06:31.588Z,20.78
2022-11-01T14:09:43.348Z,20.70
2022-11-01T14:12:36.170Z,20.61
2022-11-01T14:15:22.152Z,20.54
2022-11-01T14:18:13.247Z,20.46
2022-11-01T14:20:51.759Z,20.40
2022-11-01T14:23:59.534Z,20.31
2022-11-01T14:27:09.064Z,20.25
2022-11-01T14:29:43.354Z,20.17
2022-11-01T14:32:16.643Z,20.08
2022-11-01T14:34:57.690Z,20.04
2022-11-01T14:37:38.637Z,19.96
2022-11-01T14:40:29.325Z,19.90
2022-11-01T14:43:07.316Z,19.83
2022-11-01T14:45:45.193Z,19.78
2022-11-01T14:48:23.864Z,19.72
2022-11-01T14:51:04.068Z,19.63
2022-11-01T14:53:40.226Z,19.56
2022-11-01T14:56:16.573Z,19.49
2022-11-01T14:58:50.025Z,19.42
2022-11-01T15:01:25.304Z,19.36
2022-11-01T15:04:01.237Z,19.28
2022-11-01T15:06:34.067Z,19.21
2022-11-01T15:09:07.340Z,19.17
2022-11-01T15:11:40.398Z,19.11
2022-11-01T15:14:20.844Z,19.08
2022-11-01T15:16:55.368Z,19.01
2022-11-01T15:19:33.849Z,18.99
2022-11-01T15:22:07.138Z,18.93
2022-11-01T15:24:39.998Z,18.92
2022-11-01T15:27:16.323Z,18.92
2022-11-01T15:29:50.118Z,18.92
2022-11-01T15:32:26.897Z,18.94
2022-11-01T15:35:03.600Z,18.95
2022-11-01T15:37:50.122Z,18.99
2022-11-01T15:40:29.555Z,19.05
2022-11-01T15:43:06.720Z,19.05
2022-11-01T15:45:40.324Z,19.07
2022-11-01T15:48:21.003Z,19.10
2022-11-01T15:50:58.388Z,19.10
2022-11-01T15:53:35.418Z,19.09
2022-11-01T15:56:12.827Z,19.10
2022-11-01T15:58:51.893Z,19.08
2022-11-01T16:01:25.720Z,19.05
2022-11-01T16:04:04.115Z,19.05
2022-11-01T16:06:44.394Z,19.02
2022-11-01T16:09:26.988Z,18.96
2022-11-01T16:12:02.727Z,18.89
2022-11-01T16:14:38.840Z,18.82
2022-11-01T16:17:24.645Z,18.74
2022-11-01T16:19:59.358Z,18.64
2022-11-01T16:22:38.560Z,18.59
2022-11-01T16:25:20.587Z,18.51
2022-11-01T16:28:00.305Z,18.43
2022-11-01T16:30:37.001Z,18.35
2022-11-01T16:33:17.306Z,18.26
2022-11-01T16:35:52.714Z,18.22
2022-11-01T16:38:29.801Z,18.15
2022-11-01T16:41:04.610Z,18.08
2022-11-01T16:43:37.592Z,18.01
2022-11-01T16:46:10.864Z,17.96
2022-11-01T16:48:51.836Z,17.93
2022-11-01T16:51:28.584Z,17.87
2022-11-01T16:54:02.259Z,17.83
2022-11-01T16:56:40.865Z,17.80
2022-11-01T16:59:27.854Z,17.75
2022-11-01T17:02:02.160Z,17.66
2022-11-01T17:04:35.218Z,17.59
2022-11-01T17:07:11.722Z,17.53
2022-11-01T17:09:45.163Z,17.42
2022-11-01T17:12:18.380Z,17.31
2022-11-01T17:14:52.858Z,17.23
2022-11-01T17:17:27.507Z,17.14
2022-11-01T17:20:04.236Z,17.04
2022-11-01T17:22:38.491Z,16.95
2022-11-01T17:25:15.981Z,16.87
2022-11-01T17:27:51.205Z,16.78
2022-11-01T17:30:24.376Z,16.73
2022-11-01T17:32:57.211Z,16.66
2022-11-01T17:35:30.124Z,16.64
2022-11-01T17:38:05.152Z,16.63
2022-11-01T17:40:38.658Z,16.63
2022-11-01T17:43:17.070Z,16.66
2022-11-01T17:45:50.805Z,16.68
2022-11-01T17:48:23.984Z,16.72
2022-11-01T17:51:01.344Z,16.79
2022-11-01T17:53:38.211Z,16.84
2022-11-01T17:56:11.378Z,16.88
2022-11-01T17:58:49.509Z,16.92
2022-11-01T18:01:25.017Z,16.94
2022-11-01T18:03:58.084Z,16.93
2022-11-01T18:06:30.963Z,16.91
2022-11-01T18:09:19.112Z,16.88
2022-11-01T18:12:03.050Z,16.83
2022-11-01T18:14:49.868Z,16.77
2022-11-01T18:17:41.453Z,16.69
2022-11-01T18:20:27.608Z,16.60
2022-11-01T18:23:04.825Z,16.53
2022-11-01T18:25:42.821Z,16.46
2022-11-01T18:28:18.508Z,16.38
2022-11-01T18:30:56.808Z,16.30
2022-11-01T18:33:38.108Z,16.26
2022-11-01T18:36:19.151Z,16.21
2022-11-01T18:38:58.835Z,16.14
2022-11-01T18:41:33.180Z,16.10
2022-11-01T18:44:11.857Z,16.05
2022-11-01T18:46:54.141Z,16.03
2022-11-01T18:49:28.648Z,15.96
2022-11-01T18:52:02.101Z,15.91
2022-11-01T18:54:35.504Z,15.85
2022-11-01T18:57:16.362Z,15.81
2022-11-01T18:59:50.345Z,15.74
2022-11-01T19:02:27.139Z,15.68
2022-11-01T19:05:11.776Z,15.61
2022-11-01T19:08:09.499Z,15.53
2022-11-01T19:10:39.402Z,15.45
2022-11-01T19:13:17.232Z,15.39
2022-11-01T19:15:54.081Z,15.32
2022-11-01T19:18:27.774Z,15.27
2022-11-01T19:21:01.759Z,15.24
2022-11-01T19:23:38.804Z,15.24
2022-11-01T19:26:19.881Z,15.22
2022-11-01T19:28:55.794Z,15.22
2022-11-01T19:31:32.073Z,15.22
2022-11-01T19:34:07.211Z,15.21
2022-11-01T19:36:43.534Z,15.23
2022-11-01T19:39:23.380Z,15.26
2022-11-01T19:42:00.132Z,15.25
2022-11-01T19:44:34.570Z,15.26
2022-11-01T19:47:32.110Z,15.27
2022-11-01T19:50:16.871Z,15.27
2022-11-01T19:52:52.328Z,15.25
2022-11-01T19:55:38.443Z,15.28
2022-11-01T19:58:25.012Z,15.28
2022-11-01T20:01:27.781Z,15.27
2022-11-01T20:04:04.041Z,15.28
2022-11-01T20:06:48.660Z,15.31
2022-11-01T20:09:24.287Z,15.36
2022-11-01T20:11:57.346Z,15.40
2022-11-01T20:14:30.210Z,15.45
2022-11-01T20:17:03.675Z,15.53
2022-11-01T20:19:38.134Z,15.57
2022-11-01T20:22:11.045Z,15.62
2022-11-01T20:24:44.001Z,15.64
2022-11-01T20:27:18.382Z,15.67
2022-11-01T20:29:51.350Z,15.66
2022-11-01T20:32:24.257Z,15.64
2022-11-01T20:34:59.275Z,15.62
2022-11-01T20:37:32.274Z,15.59
2022-11-01T20:40:06.089Z,15.57
2022-11-01T20:42:39.134Z,15.54
2022-11-01T20:45:12.465Z,15.54
2022-11-01T20:47:46.489Z,15.56
2022-11-01T20:50:21.146Z,15.58
2022-11-01T20:52:54.095Z,15.60
2022-11-01T20:55:27.999Z,15.63
2022-11-01T20:58:01.203Z,15.68
2022-11-01T21:00:34.418Z,15.71
2022-11-01T21:03:15.269Z,15.75
2022-11-01T21:05:51.072Z,15.76
2022-11-01T21:08:25.503Z,15.75
2022-11-01T21:11:02.189Z,15.73
2022-11-01T21:13:38.885Z,15.71
2022-11-01T21:16:24.378Z,15.69
2022-11-01T21:19:02.381Z,15.65
2022-11-01T21:21:45.486Z,15.61
2022-11-01T21:24:39.339Z,15.56
2022-11-01T21:27:26.634Z,15.48
2022-11-01T21:30:07.270Z,15.41
2022-11-01T21:32:44.122Z,15.30
2022-11-01T21:35:41.372Z,15.24
2022-11-01T21:38:35.507Z,15.13
2022-11-01T21:41:24.489Z,15.02
2022-11-01T21:43:57.843Z,14.92
2022-11-01T21:46:36.967Z,14.82
2022-11-01T21:49:27.720Z,14.72
2022-11-01T21:52:02.719Z,14.63
2022-11-01T21:54:39.580Z,14.56
2022-11-01T21:57:13.832Z,14.47
2022-11-01T21:59:47.214Z,14.41
2022-11-01T22:02:20.252Z,14.37
2022-11-01T22:04:54.847Z,14.34
2022-11-01T22:07:27.919Z,14.31
2022-11-01T22:10:02.273Z,14.31
2022-11-01T22:12:35.144Z,14.28
2022-11-01T22:15:09.230Z,14.27
2022-11-01T22:17:42.491Z,14.27
2022-11-01T22:20:15.959Z,14.25
2022-11-01T22:22:48.876Z,14.24
2022-11-01T22:25:23.131Z,14.25
2022-11-01T22:27:56.106Z,14.24
2022-11-01T22:30:29.399Z,14.23
2022-11-01T22:33:02.480Z,14.22
2022-11-01T22:35:35.587Z,14.21
2022-11-01T22:38:17.541Z,14.21
2022-11-01T22:43:31.029Z,14.16
2022-11-01T22:46:04.184Z,14.13
2022-11-01T22:48:37.001Z,14.08
2022-11-01T22:51:17.728Z,14.06
2022-11-01T22:53:55.067Z,13.99
2022-11-01T22:56:33.738Z,13.95
2022-11-01T22:59:12.075Z,13.90
2022-11-01T23:01:45.292Z,13.85
2022-11-01T23:04:22.615Z,13.84
2022-11-01T23:06:55.426Z,13.80
2022-11-01T23:09:28.229Z,13.78
2022-11-01T23:12:20.379Z,13.78
2022-11-01T23:14:55.544Z,13.75
2022-11-01T23:17:34.005Z,13.76
2022-11-01T23:20:10.940Z,13.70
2022-11-01T23:22:44.071Z,13.67
2022-11-01T23:25:17.163Z,13.62
2022-11-01T23:27:51.539Z,13.57
2022-11-01T23:30:24.514Z,13.51
2022-11-01T23:32:59.608Z,13.43
2022-11-01T23:35:32.524Z,13.40
2022-11-01T23:38:16.415Z,13.36
2022-11-01T23:40:54.570Z,13.33
2022-11-01T23:43:34.944Z,13.31
2022-11-01T23:46:09.227Z,13.28
2022-11-01T23:48:44.403Z,13.27
2022-11-01T23:51:21.184Z,13.30
2022-11-01T23:53:55.998Z,13.29
2022-11-01T23:56:29.214Z,13.29
2022-11-01T23:59:05.669Z,13.28
